Time;durP1;ratioP1;P1;durP2;ratioP2;P2;SDS_P1;SDS_P2;PMS_P1;PMS_P2;Temp;Humidity;BMP_temperature;BMP_pressure;BME280_temperature;BME280_humidity;BME280_pressure;Samples;Min_cycle;Max_cycle;Signal;HPM_P1;HPM_P2
2023/06/07 00:02:19;;;;;;;2.27;1.80;;;;;;;17.07;100.00;99359.59;5075465;28;20200;-78
2023/06/07 00:04:46;;;;;;;3.13;1.70;;;;;;;17.07;100.00;99362.97;5074072;28;20229;-78
2023/06/07 00:07:13;;;;;;;2.67;1.80;;;;;;;17.05;100.00;99361.53;5075987;28;20203;-78
2023/06/07 00:09:41;;;;;;;4.43;2.00;;;;;;;16.96;100.00;99361.44;5073144;28;20370;-78
2023/06/07 00:12:10;;;;;;;2.50;1.83;;;;;;;16.92;100.00;99362.66;5075006;28;20261;-78
2023/06/07 00:14:37;;;;;;;2.47;1.77;;;;;;;16.86;100.00;99365.81;5074112;28;20204;-78
2023/06/07 00:17:04;;;;;;;2.53;1.43;;;;;;;16.84;100.00;99354.00;5073996;28;20595;-78
2023/06/07 00:19:32;;;;;;;2.77;1.80;;;;;;;16.82;100.00;99364.50;5075145;28;20208;-78
2023/06/07 00:22:01;;;;;;;2.10;1.60;;;;;;;16.75;100.00;99353.91;5075602;28;20256;-78
2023/06/07 00:24:29;;;;;;;6.70;1.97;;;;;;;16.65;100.00;99353.13;5074322;28;20237;-78
2023/06/07 00:26:56;;;;;;;2.40;1.77;;;;;;;16.57;100.00;99350.44;5076143;28;20241;-78
2023/06/07 00:29:22;;;;;;;2.67;1.97;;;;;;;16.52;100.00;99343.16;5073714;28;20207;-78
2023/06/07 00:31:50;;;;;;;2.93;2.00;;;;;;;16.49;100.00;99338.28;5074489;28;20242;-78
2023/06/07 00:34:17;;;;;;;5.57;2.00;;;;;;;16.48;100.00;99341.78;5075260;28;20281;-78
2023/06/07 00:36:47;;;;;;;2.70;1.80;;;;;;;16.43;100.00;99338.81;5075833;28;20231;-78
2023/06/07 00:39:14;;;;;;;3.23;1.80;;;;;;;16.39;100.00;99337.47;5076290;28;20192;-78
2023/06/07 00:41:40;;;;;;;3.10;2.00;;;;;;;16.36;100.00;99345.50;5075029;28;20272;-78
2023/06/07 00:44:07;;;;;;;2.90;1.90;;;;;;;16.35;100.00;99340.47;5074078;28;20663;-78
2023/06/07 00:46:34;;;;;;;2.87;1.73;;;;;;;16.34;100.00;99342.25;5071934;28;20288;-78
2023/06/07 00:49:01;;;;;;;2.40;1.60;;;;;;;16.31;100.00;99345.13;5074947;28;20207;-78
2023/06/07 00:51:30;;;;;;;2.83;1.70;;;;;;;16.31;100.00;99342.53;5076030;28;20221;-78
2023/06/07 00:54:01;;;;;;;4.23;2.00;;;;;;;16.28;100.00;99329.91;5073449;28;20202;-78
2023/06/07 00:56:28;;;;;;;2.63;1.80;;;;;;;16.24;100.00;99344.06;5075387;28;20248;-78
2023/06/07 00:58:55;;;;;;;2.73;2.00;;;;;;;16.24;100.00;99338.91;5075171;28;20294;-78
2023/06/07 01:01:22;;;;;;;2.90;2.13;;;;;;;16.17;100.00;99336.06;5074693;28;20225;-78
2023/06/07 01:03:49;;;;;;;3.40;2.10;;;;;;;16.12;100.00;99340.03;5073860;28;20202;-78
2023/06/07 01:06:16;;;;;;;3.00;1.90;;;;;;;16.07;100.00;99337.84;5075820;28;20226;-78
2023/06/07 01:08:44;;;;;;;3.40;2.13;;;;;;;16.02;100.00;99335.69;5074411;28;20209;-77
2023/06/07 01:11:14;;;;;;;3.00;2.27;;;;;;;15.97;100.00;99335.31;5075279;28;20239;-78
2023/06/07 01:13:41;;;;;;;4.23;1.93;;;;;;;15.92;100.00;99334.91;5074641;28;20194;-78
2023/06/07 01:16:09;;;;;;;3.90;2.43;;;;;;;15.84;100.00;99337.34;5073259;28;20234;-78
2023/06/07 01:18:37;;;;;;;3.27;2.20;;;;;;;15.81;100.00;99335.06;5076226;28;20195;-78
2023/06/07 01:21:06;;;;;;;3.10;2.37;;;;;;;15.74;100.00;99331.41;5075566;28;20218;-78
2023/06/07 01:23:36;;;;;;;3.23;2.07;;;;;;;15.68;100.00;99331.94;5074131;28;20451;-78
2023/06/07 01:26:04;;;;;;;3.10;2.13;;;;;;;15.67;100.00;99330.28;5074839;28;20772;-78
2023/06/07 01:28:34;;;;;;;4.50;2.70;;;;;;;15.61;100.00;99332.47;5073939;28;20217;-78
2023/06/07 01:31:02;;;;;;;3.97;2.63;;;;;;;15.59;100.00;99334.38;5075837;28;20321;-78
2023/06/07 01:33:31;;;;;;;4.90;2.23;;;;;;;15.52;100.00;99330.72;5073646;28;20206;-78
2023/06/07 01:35:59;;;;;;;5.87;2.80;;;;;;;15.44;100.00;99330.56;5075055;28;20245;-77
2023/06/07 01:38:27;;;;;;;3.37;2.40;;;;;;;15.44;100.00;99322.84;5073846;28;20300;-78
2023/06/07 01:40:56;;;;;;;5.20;2.70;;;;;;;15.44;100.00;99325.41;5073306;28;20272;-78
2023/06/07 01:43:24;;;;;;;4.00;2.30;;;;;;;15.43;100.00;99328.97;5075456;28;20252;-78
2023/06/07 01:45:52;;;;;;;6.37;3.20;;;;;;;15.39;100.00;99333.56;5074565;28;20491;-78
2023/06/07 01:48:20;;;;;;;5.23;3.10;;;;;;;15.36;100.00;99331.28;5072367;28;20211;-78
2023/06/07 01:50:47;;;;;;;4.07;2.47;;;;;;;15.37;100.00;99337.22;5073023;28;20226;-78
2023/06/07 01:53:13;;;;;;;5.87;3.07;;;;;;;15.35;100.00;99339.13;5076448;28;20222;-78
2023/06/07 01:55:40;;;;;;;7.93;2.97;;;;;;;15.31;100.00;99335.19;5078101;28;20713;-78
2023/06/07 01:58:19;;;;;;;5.70;3.10;;;;;;;15.31;100.00;99341.16;5077676;28;20199;-78
2023/06/07 02:00:56;;;;;;;4.67;2.97;;;;;;;15.31;100.00;99341.16;5078391;28;20264;-78
2023/06/07 02:03:29;;;;;;;7.00;2.70;;;;;;;15.30;100.00;99336.13;5077500;28;20228;-78
2023/06/07 02:06:01;;;;;;;5.00;2.93;;;;;;;15.20;100.00;99332.75;5077430;28;20289;-78
2023/06/07 02:08:33;;;;;;;6.70;3.13;;;;;;;15.16;100.00;99337.34;5078608;28;20252;-78
2023/06/07 02:11:02;;;;;;;5.50;2.90;;;;;;;15.15;100.00;99338.28;5080524;28;20234;-78
2023/06/07 02:13:35;;;;;;;5.27;2.70;;;;;;;15.05;100.00;99333.13;5076917;28;20195;-78
2023/06/07 02:16:04;;;;;;;4.47;2.57;;;;;;;15.02;100.00;99335.97;5077473;28;20683;-78
2023/06/07 02:18:33;;;;;;;4.23;2.97;;;;;;;15.00;100.00;99332.72;5076801;28;20194;-78
2023/06/07 02:20:59;;;;;;;9.80;2.90;;;;;;;14.99;100.00;99333.66;5076706;28;20744;-78
2023/06/07 02:23:26;;;;;;;7.33;3.10;;;;;;;14.94;100.00;99338.38;5078559;28;20207;-78
2023/06/07 02:25:53;;;;;;;6.43;2.60;;;;;;;14.92;100.00;99335.13;5076344;28;20214;-78
2023/06/07 02:28:20;;;;;;;5.33;2.77;;;;;;;14.90;100.00;99337.84;5078089;28;20653;-78
2023/06/07 02:30:48;;;;;;;4.00;2.93;;;;;;;14.92;100.00;99335.13;5079380;28;20223;-78
2023/06/07 02:33:16;;;;;;;4.13;2.83;;;;;;;14.91;100.00;99338.66;5078015;28;20264;-78
2023/06/07 02:35:45;;;;;;;10.13;3.00;;;;;;;14.86;100.00;99340.81;5074987;28;20805;-78
2023/06/07 02:38:12;;;;;;;4.97;3.00;;;;;;;14.84;100.00;99337.56;5079266;28;20202;-78
2023/06/07 02:40:39;;;;;;;4.47;3.03;;;;;;;14.84;100.00;99335.81;5079122;28;20301;-78
2023/06/07 02:43:06;;;;;;;6.40;3.23;;;;;;;14.82;100.00;99339.47;5077941;28;20666;-78
2023/06/07 02:45:32;;;;;;;4.13;2.63;;;;;;;14.74;100.00;99337.53;5077249;28;20230;-78
2023/06/07 02:48:01;;;;;;;6.57;3.20;;;;;;;14.76;100.00;99334.84;5076277;28;20209;-78
2023/06/07 02:50:27;;;;;;;9.40;2.90;;;;;;;14.74;100.00;99336.72;5075623;28;20222;-78
2023/06/07 02:52:54;;;;;;;4.23;3.10;;;;;;;14.73;100.00;99345.41;5076001;28;20199;-77
2023/06/07 02:55:21;;;;;;;5.93;2.80;;;;;;;14.69;100.00;99339.69;5076789;28;20225;-78
2023/06/07 02:57:48;;;;;;;6.20;3.27;;;;;;;14.64;100.00;99342.66;5078264;28;20259;-77
2023/06/07 03:00:16;;;;;;;4.50;3.27;;;;;;;14.62;100.00;99343.72;5073215;28;20253;-78
2023/06/07 03:02:43;;;;;;;6.10;3.43;;;;;;;14.60;100.00;99345.59;5078989;28;20521;-79
2023/06/07 03:05:12;;;;;;;7.47;3.47;;;;;;;14.59;100.00;99346.56;5076149;28;20234;-78
2023/06/07 03:07:40;;;;;;;6.67;3.73;;;;;;;14.51;100.00;99342.03;5076209;28;20210;-78
2023/06/07 03:10:08;;;;;;;5.87;3.20;;;;;;;14.42;100.00;99335.88;5075885;28;20218;-78
2023/06/07 03:12:35;;;;;;;7.53;3.67;;;;;;;14.39;100.00;99333.56;5074063;28;20630;-78
2023/06/07 03:15:02;;;;;;;4.43;3.03;;;;;;;14.36;100.00;99335.59;5074525;28;20217;-78
2023/06/07 03:17:29;;;;;;;7.23;3.50;;;;;;;14.36;100.00;99333.03;5073842;28;20232;-78
2023/06/07 03:19:56;;;;;;;6.93;3.50;;;;;;;14.33;100.00;99334.09;5075184;28;20305;-78
2023/06/07 03:22:24;;;;;;;13.30;3.90;;;;;;;14.32;100.00;99336.81;5075339;28;20648;-78
2023/06/07 03:24:52;;;;;;;4.80;3.27;;;;;;;14.35;100.00;99337.38;5075125;28;20233;-78
2023/06/07 03:27:22;;;;;;;7.13;3.50;;;;;;;14.37;100.00;99334.66;5074769;28;20203;-78
2023/06/07 03:29:49;;;;;;;7.17;3.93;;;;;;;14.39;100.00;99332.78;5074807;28;20204;-78
2023/06/07 03:32:16;;;;;;;6.13;4.00;;;;;;;14.40;100.00;99339.56;5074259;28;20197;-78
2023/06/07 03:34:43;;;;;;;6.33;3.57;;;;;;;14.44;100.00;99343.50;5074523;28;20436;-78
2023/06/07 03:37:10;;;;;;;6.67;3.97;;;;;;;14.51;100.00;99339.44;5074596;28;20241;-78
2023/06/07 03:39:38;;;;;;;8.87;4.17;;;;;;;14.56;100.00;99339.91;5075016;28;20652;-78
2023/06/07 03:42:06;;;;;;;6.33;3.70;;;;;;;14.61;100.00;99342.09;5074447;28;20591;-78
2023/06/07 03:44:33;;;;;;;6.00;4.13;;;;;;;14.68;100.00;99340.63;5073364;28;20256;-78
2023/06/07 03:47:00;;;;;;;6.87;4.10;;;;;;;14.79;100.00;99339.72;5074049;28;20199;-79
2023/06/07 03:49:26;;;;;;;8.20;4.33;;;;;;;14.85;100.00;99344.34;5075588;28;20560;-78
2023/06/07 03:51:54;;;;;;;6.83;4.17;;;;;;;14.89;100.00;99346.53;5077125;28;20222;-78
2023/06/07 03:54:20;;;;;;;8.93;4.50;;;;;;;14.97;100.00;99339.88;5074432;28;20561;-78
2023/06/07 03:56:49;;;;;;;9.93;4.73;;;;;;;14.96;100.00;99341.66;5072938;28;20230;-78
2023/06/07 03:59:19;;;;;;;7.77;4.60;;;;;;;14.96;100.00;99341.66;5074556;28;20725;-78
2023/06/07 04:01:46;;;;;;;9.37;5.13;;;;;;;14.98;100.00;99339.78;5072928;28;20219;-78
2023/06/07 04:04:12;;;;;;;7.33;4.80;;;;;;;15.08;100.00;99350.06;5074451;28;20214;-78
2023/06/07 04:06:39;;;;;;;7.73;4.53;;;;;;;15.08;100.00;99345.75;5074013;28;20312;-78
2023/06/07 04:09:07;;;;;;;9.17;4.30;;;;;;;15.14;100.00;99346.97;5074012;28;20203;-78
2023/06/07 04:11:34;;;;;;;9.23;4.60;;;;;;;15.17;100.00;99344.94;5075158;28;20305;-78
2023/06/07 04:14:02;;;;;;;9.10;4.77;;;;;;;15.22;100.00;99338.59;5073030;28;20199;-78
2023/06/07 04:16:30;;;;;;;8.43;4.63;;;;;;;15.21;100.00;99334.34;5072988;28;20299;-78
2023/06/07 04:18:57;;;;;;;7.83;5.20;;;;;;;15.26;100.00;99332.19;5074474;28;20202;-78
2023/06/07 04:21:23;;;;;;;8.90;4.97;;;;;;;15.30;100.00;99333.56;5073483;28;20343;-78
2023/06/07 04:23:50;;;;;;;6.67;4.60;;;;;;;15.28;100.00;99338.03;5072603;28;20202;-78
2023/06/07 04:26:19;;;;;;;7.57;4.80;;;;;;;15.31;100.00;99345.50;5074528;28;20280;-78
2023/06/07 04:28:46;;;;;;;8.97;5.00;;;;;;;15.31;100.00;99335.19;5071956;28;20609;-79
2023/06/07 04:31:14;;;;;;;8.13;4.50;;;;;;;15.29;100.00;99326.78;5073544;28;20296;-79
2023/06/07 04:33:45;;;;;;;6.93;4.37;;;;;;;15.34;100.00;99332.34;5073299;28;20194;-78
2023/06/07 04:36:14;;;;;;;8.27;4.40;;;;;;;15.38;100.00;99341.41;5074502;28;20711;-78
2023/06/07 04:38:41;;;;;;;7.87;4.77;;;;;;;15.37;100.00;99339.81;5071943;28;20221;-78
2023/06/07 04:41:08;;;;;;;8.67;4.83;;;;;;;15.44;100.00;99335.72;5073030;28;20621;-78
2023/06/07 04:43:36;;;;;;;7.43;4.10;;;;;;;15.45;100.00;99337.38;5072707;28;20268;-78
2023/06/07 04:46:03;;;;;;;7.43;4.50;;;;;;;15.46;100.00;99339.00;5071625;28;20225;-78
2023/06/07 04:48:32;;;;;;;9.63;4.77;;;;;;;15.51;100.00;99341.16;5074297;28;20203;-78
2023/06/07 04:51:03;;;;;;;11.53;4.63;;;;;;;15.57;100.00;99341.44;5073691;28;20229;-78
2023/06/07 04:53:36;;;;;;;8.23;4.87;;;;;;;15.60;100.00;99341.16;5072960;28;20257;-78
2023/06/07 04:56:03;;;;;;;10.50;5.40;;;;;;;15.73;100.00;99340.09;5073800;28;20257;-78
2023/06/07 04:58:30;;;;;;;7.50;5.00;;;;;;;15.85;100.00;99344.13;5073416;28;20727;-78
2023/06/07 05:00:57;;;;;;;7.97;5.13;;;;;;;15.94;100.00;99352.81;5074104;28;20220;-78
2023/06/07 05:03:24;;;;;;;13.93;6.20;;;;;;;16.02;100.00;99351.16;5074917;28;20237;-78
2023/06/07 05:05:53;;;;;;;9.90;5.73;;;;;;;16.14;100.00;99353.59;5073127;28;20227;-78
2023/06/07 05:08:20;;;;;;;8.43;5.23;;;;;;;16.26;100.00;99362.78;5073030;28;20233;-78
2023/06/07 05:10:47;;;;;;;7.20;5.23;;;;;;;16.44;100.00;99355.94;5074220;28;20218;-78
2023/06/07 05:13:14;;;;;;;7.97;4.83;;;;;;;16.65;100.00;99354.91;5072572;28;20248;-79
2023/06/07 05:15:40;;;;;;;9.17;5.37;;;;;;;16.70;100.00;99356.09;5072533;28;20220;-79
2023/06/07 05:18:09;;;;;;;9.10;5.10;;;;;;;16.79;100.00;99354.47;5071513;28;20234;-79
2023/06/07 05:20:36;;;;;;;7.67;4.70;;;;;;;16.90;100.00;99356.84;5073542;28;20249;-79
2023/06/07 05:23:04;;;;;;;7.50;4.67;;;;;;;17.04;100.00;99354.72;5072716;28;20198;-79
2023/06/07 05:25:32;;;;;;;6.53;4.20;;;;;;;17.16;100.00;99356.97;5071945;28;20222;-79
2023/06/07 05:27:58;;;;;;;9.77;4.80;;;;;;;17.28;100.00;99354.97;5076240;28;20743;-78
2023/06/07 05:30:25;;;;;;;10.33;4.60;;;;;;;17.38;100.00;99360.88;5075124;28;20242;-79
2023/06/07 05:32:52;;;;;;;6.93;4.30;;;;;;;17.57;100.00;99359.09;5075984;28;20663;-77
2023/06/07 05:35:19;;;;;;;7.83;4.70;;;;;;;17.67;100.00;99365.00;5078490;28;20278;-79
2023/06/07 05:37:46;;;;;;;5.87;4.03;;;;;;;17.81;100.00;99366.28;5076285;28;20230;-79
2023/06/07 05:40:17;;;;;;;7.60;4.53;;;;;;;17.94;100.00;99376.22;5076794;28;20227;-78
2023/06/07 05:42:44;;;;;;;6.80;4.20;;;;;;;18.00;100.00;99376.41;5080543;28;20695;-79
2023/06/07 05:45:11;;;;;;;7.57;4.17;;;;;;;18.04;100.00;99382.94;5078948;28;20240;-78
2023/06/07 05:47:38;;;;;;;5.67;3.70;;;;;;;18.07;100.00;99387.00;5077466;28;20216;-78
2023/06/07 05:50:06;;;;;;;6.70;3.70;;;;;;;18.14;100.00;99393.16;5075969;28;20247;-78
2023/06/07 05:52:33;;;;;;;6.07;3.70;;;;;;;18.20;100.00;99387.38;5076477;28;20315;-78
2023/06/07 05:55:00;;;;;;;5.67;3.87;;;;;;;18.39;100.00;99385.56;5077695;28;20374;-77
2023/06/07 05:57:29;;;;;;;8.10;4.27;;;;;;;18.65;100.00;99394.13;5078884;28;20230;-78
2023/06/07 05:59:55;;;;;;;6.80;4.17;;;;;;;18.82;100.00;99386.44;5078888;28;20224;-78
2023/06/07 06:02:23;;;;;;;6.97;3.87;;;;;;;19.03;100.00;99389.44;5075652;28;20199;-78
2023/06/07 06:04:51;;;;;;;5.57;3.60;;;;;;;19.26;100.00;99383.63;5077963;28;20201;-78
2023/06/07 06:07:19;;;;;;;5.23;3.53;;;;;;;19.45;100.00;99391.94;5075930;28;20231;-78
2023/06/07 06:09:46;;;;;;;7.63;3.87;;;;;;;19.65;100.00;99397.66;5077954;28;20196;-78
2023/06/07 06:12:13;;;;;;;5.37;3.70;;;;;;;19.84;100.00;99403.50;5075705;28;20204;-78
2023/06/07 06:14:41;;;;;;;5.20;3.60;;;;;;;20.02;100.00;99404.13;5076826;28;20198;-78
2023/06/07 06:17:08;;;;;;;4.40;3.00;;;;;;;20.20;100.00;99413.53;5076338;28;20222;-78
2023/06/07 06:19:35;;;;;;;4.10;2.97;;;;;;;20.38;100.00;99421.13;5075081;28;20275;-79
2023/06/07 06:22:01;;;;;;;3.83;2.97;;;;;;;20.49;100.00;99420.78;5074719;28;20209;-78
2023/06/07 06:24:28;;;;;;;4.97;3.53;;;;;;;20.70;100.00;99417.66;5077325;28;20206;-78
2023/06/07 06:26:56;;;;;;;3.70;3.20;;;;;;;20.94;100.00;99417.56;5080390;28;20220;-78
2023/06/07 06:29:22;;;;;;;5.27;3.00;;;;;;;21.18;100.00;99428.81;5077862;28;20810;-77
2023/06/07 06:31:51;;;;;;;5.40;3.37;;;;;;;21.38;100.00;99429.19;5077626;28;20283;-78
2023/06/07 06:34:18;;;;;;;6.63;3.27;;;;;;;21.45;97.77;99420.53;5076629;28;20210;-78
2023/06/07 06:36:46;;;;;;;3.97;3.00;;;;;;;21.66;96.26;99426.91;5075957;28;20723;-78
2023/06/07 06:39:14;;;;;;;3.67;2.57;;;;;;;21.76;95.43;99419.69;5074272;28;20233;-78
2023/06/07 06:41:40;;;;;;;4.63;3.10;;;;;;;21.91;92.25;99424.94;5075555;28;20750;-78
2023/06/07 06:44:07;;;;;;;3.80;2.73;;;;;;;22.06;93.34;99419.75;5076959;28;20259;-78
2023/06/07 06:46:34;;;;;;;5.20;2.87;;;;;;;22.08;91.84;99418.59;5076696;28;20222;-78
2023/06/07 06:49:03;;;;;;;5.27;2.90;;;;;;;22.10;91.72;99408.00;5076045;28;20227;-79
2023/06/07 06:51:29;;;;;;;4.17;2.60;;;;;;;22.05;92.12;99410.31;5074124;28;20663;-78
2023/06/07 06:53:56;;;;;;;5.63;2.90;;;;;;;21.96;88.97;99408.78;5073795;28;20217;-78
2023/06/07 06:56:23;;;;;;;5.60;2.87;;;;;;;21.93;88.22;99408.16;5073871;28;20234;-78
2023/06/07 06:58:50;;;;;;;4.67;2.90;;;;;;;21.96;90.60;99403.56;5075876;28;20226;-78
2023/06/07 07:01:18;;;;;;;4.00;2.70;;;;;;;22.18;90.12;99410.56;5074891;28;20226;-78
2023/06/07 07:03:45;;;;;;;8.17;5.13;;;;;;;22.31;90.28;99399.50;5073825;28;20198;-79
2023/06/07 07:06:13;;;;;;;6.33;4.10;;;;;;;22.61;88.47;99413.38;5074794;28;20222;-78
2023/06/07 07:08:41;;;;;;;4.60;2.60;;;;;;;22.73;83.07;99403.28;5075363;28;20590;-78
2023/06/07 07:11:08;;;;;;;2.70;2.17;;;;;;;22.90;83.86;99404.69;5077200;28;20222;-79
2023/06/07 07:13:34;;;;;;;3.72;2.05;;;;;;;23.13;82.88;99409.81;5075836;28;20199;-78
2023/06/07 07:16:01;;;;;;;2.80;2.17;;;;;;;23.26;82.03;99409.13;5075287;28;20276;-79
2023/06/07 07:18:28;;;;;;;2.80;2.08;;;;;;;23.31;81.14;99416.41;5074624;28;20672;-79
2023/06/07 07:20:55;;;;;;;5.20;2.50;;;;;;;23.44;79.70;99424.34;5074259;28;20253;-79
2023/06/07 07:23:23;;;;;;;3.17;2.08;;;;;;;23.68;79.95;99416.16;5074971;28;20206;-79
2023/06/07 07:25:50;;;;;;;4.50;2.30;;;;;;;23.84;78.35;99422.16;5073764;28;20688;-79
2023/06/07 07:28:17;;;;;;;3.25;2.05;;;;;;;23.97;73.77;99417.03;5073812;28;20207;-79
2023/06/07 07:30:44;;;;;;;3.22;2.22;;;;;;;23.99;73.70;99420.25;5073524;28;20300;-78
2023/06/07 07:33:11;;;;;;;3.88;1.90;;;;;;;23.92;71.46;99422.03;5075138;28;20214;-78
2023/06/07 07:35:37;;;;;;;2.70;2.05;;;;;;;24.03;75.98;99425.91;5073653;28;20222;-80
2023/06/07 07:38:06;;;;;;;4.53;2.50;;;;;;;24.17;78.90;99420.59;5074290;28;20226;-78
2023/06/07 07:40:34;;;;;;;3.05;1.95;;;;;;;24.25;75.18;99419.63;5074321;28;20225;-79
2023/06/07 07:43:01;;;;;;;3.08;2.17;;;;;;;24.27;75.33;99416.84;5074062;28;20260;-78
2023/06/07 07:45:28;;;;;;;4.95;2.33;;;;;;;24.51;74.50;99419.00;5073094;28;20771;-79
2023/06/07 07:47:55;;;;;;;2.90;2.25;;;;;;;24.69;71.59;99426.34;5074792;28;20203;-79
2023/06/07 07:50:21;;;;;;;2.83;1.98;;;;;;;24.87;68.55;99428.47;5072508;28;20424;-79
2023/06/07 07:52:48;;;;;;;6.45;2.20;;;;;;;24.93;69.41;99438.13;5071682;28;20205;-79
2023/06/07 07:55:15;;;;;;;3.60;2.05;;;;;;;24.80;64.51;99444.09;5072978;28;20269;-80
2023/06/07 07:57:43;;;;;;;2.95;2.20;;;;;;;24.78;67.50;99440.06;5071453;28;20309;-80
2023/06/07 08:00:11;;;;;;;7.80;2.50;;;;;;;25.00;71.39;99433.72;5071580;28;20230;-80
2023/06/07 08:02:38;;;;;;;6.57;2.30;;;;;;;25.08;68.50;99438.78;5071538;28;20633;-80
2023/06/07 08:05:06;;;;;;;2.65;2.13;;;;;;;25.20;67.16;99438.25;5071494;28;20671;-80
2023/06/07 08:07:33;;;;;;;3.10;2.10;;;;;;;25.40;72.09;99433.06;5071200;28;20203;-80
2023/06/07 08:10:00;;;;;;;4.00;2.22;;;;;;;25.59;67.69;99444.56;5071492;28;20222;-81
2023/06/07 08:12:27;;;;;;;9.13;5.45;;;;;;;25.67;64.80;99445.19;5070862;28;20199;-79
2023/06/07 08:14:55;;;;;;;2.83;2.25;;;;;;;25.81;69.15;99448.63;5071206;28;20226;-79
2023/06/07 08:17:22;;;;;;;5.75;2.53;;;;;;;25.82;62.86;99442.41;5071082;28;20198;-81
2023/06/07 08:19:49;;;;;;;3.22;2.10;;;;;;;25.66;64.95;99442.78;5071632;28;20264;-79
2023/06/07 08:22:16;;;;;;;2.90;2.15;;;;;;;25.58;61.13;99445.56;5071226;28;20199;-79
2023/06/07 08:24:43;;;;;;;3.33;2.33;;;;;;;25.50;59.95;99444.75;5070497;28;20206;-80
2023/06/07 08:27:09;;;;;;;2.80;1.88;;;;;;;25.48;61.62;99444.16;5070528;28;20683;-80
2023/06/07 08:29:36;;;;;;;8.15;2.30;;;;;;;25.61;61.10;99442.56;5070728;28;20207;-80
2023/06/07 08:32:05;;;;;;;3.22;1.90;;;;;;;25.89;63.33;99437.16;5071406;28;20203;-80
2023/06/07 08:34:32;;;;;;;2.78;1.98;;;;;;;26.11;63.51;99440.38;5070954;28;20203;-80
2023/06/07 08:36:59;;;;;;;2.75;1.95;;;;;;;26.14;58.31;99453.06;5071690;28;20199;-80
2023/06/07 08:39:25;;;;;;;2.20;2.00;;;;;;;26.15;58.26;99449.44;5071183;28;20292;-80
2023/06/07 08:41:52;;;;;;;2.22;1.90;;;;;;;26.08;59.10;99451.28;5070720;28;20218;-79
2023/06/07 08:44:19;;;;;;;4.43;2.53;;;;;;;26.23;57.27;99449.22;5070814;28;20195;-80
2023/06/07 08:46:47;;;;;;;2.53;2.10;;;;;;;26.22;55.90;99452.88;5070681;28;20250;-80
2023/06/07 08:49:16;;;;;;;3.25;2.15;;;;;;;26.35;57.68;99447.59;5070719;28;20195;-79
2023/06/07 08:51:43;;;;;;;2.90;2.10;;;;;;;26.49;57.84;99443.13;5070865;28;20229;-80
2023/06/07 08:54:14;;;;;;;2.63;1.92;;;;;;;26.71;59.29;99440.28;5070728;28;20290;-81
2023/06/07 08:56:42;;;;;;;4.57;2.17;;;;;;;26.61;55.88;99451.19;5070970;28;20222;-80
2023/06/07 08:59:09;;;;;;;2.83;2.00;;;;;;;26.19;53.15;99448.03;5070429;28;20230;-80
2023/06/07 09:01:38;;;;;;;3.10;2.40;;;;;;;26.59;55.25;99450.63;5073230;28;20218;-80
2023/06/07 09:04:05;;;;;;;2.90;2.20;;;;;;;26.86;55.30;99453.97;5075078;28;20487;-80
2023/06/07 09:06:34;;;;;;;2.88;2.13;;;;;;;27.02;54.44;99452.66;5075795;28;20227;-80
2023/06/07 09:09:02;;;;;;;2.60;2.00;;;;;;;27.06;56.00;99457.31;5075623;28;20263;-80
2023/06/07 09:11:30;;;;;;;4.15;2.08;;;;;;;27.15;55.46;99457.91;5075350;28;20571;-80
2023/06/07 09:13:57;;;;;;;6.75;2.30;;;;;;;27.24;53.78;99456.63;5074880;28;20363;-79
2023/06/07 09:16:25;;;;;;;2.88;2.35;;;;;;;27.36;53.30;99458.59;5075187;28;20230;-79
2023/06/07 09:18:54;;;;;;;2.67;2.17;;;;;;;27.17;52.80;99445.38;5074903;28;20242;-79
2023/06/07 09:21:23;;;;;;;2.88;1.83;;;;;;;27.24;56.30;99443.50;5074031;28;20219;-79
2023/06/07 09:23:52;;;;;;;4.38;2.08;;;;;;;27.49;52.92;99453.28;5074761;28;20641;-79
2023/06/07 09:26:22;;;;;;;2.58;1.80;;;;;;;27.63;54.39;99449.50;5074766;28;20276;-79
2023/06/07 09:28:49;;;;;;;2.40;2.00;;;;;;;27.83;54.40;99449.41;5074938;28;20293;-78
2023/06/07 09:31:29;;;;;;;3.92;2.10;;;;;;;28.00;51.85;99444.41;5076357;28;20264;-78
2023/06/07 09:33:56;;;;;;;4.20;2.03;;;;;;;27.98;53.19;99442.03;5076735;28;20268;-78
2023/06/07 09:36:24;;;;;;;3.03;2.13;;;;;;;28.10;54.94;99444.75;5077285;28;20223;-79
2023/06/07 09:38:52;;;;;;;3.05;2.20;;;;;;;27.95;50.66;99434.53;5077305;28;20227;-79
2023/06/07 09:41:19;;;;;;;2.83;1.98;;;;;;;28.09;54.04;99437.06;5076535;28;20592;-79
2023/06/07 09:43:47;;;;;;;2.78;2.20;;;;;;;28.09;51.30;99427.34;5075114;28;20213;-79
2023/06/07 09:46:15;;;;;;;5.03;2.30;;;;;;;28.30;51.17;99443.72;5077064;28;20226;-79
2023/06/07 09:48:46;;;;;;;3.80;2.20;;;;;;;28.04;50.43;99440.31;5077537;28;20203;-79
2023/06/07 09:51:13;;;;;;;5.63;2.17;;;;;;;27.97;49.38;99444.84;5076910;28;20795;-79
2023/06/07 09:53:51;;;;;;;3.05;1.90;;;;;;;27.91;48.21;99456.22;5076030;28;20199;-78
2023/06/07 09:56:21;;;;;;;3.47;2.00;;;;;;;27.83;47.18;99448.59;5074704;28;20223;-79
2023/06/07 09:58:50;;;;;;;2.97;2.03;;;;;;;27.67;49.85;99440.19;5077036;28;20651;-79
2023/06/07 10:01:32;;;;;;;3.15;2.25;;;;;;;27.57;49.66;99437.22;5077327;28;20231;-79
2023/06/07 10:04:01;;;;;;;3.40;2.10;;;;;;;27.68;49.03;99436.56;5076192;28;20607;-79
2023/06/07 10:06:30;;;;;;;4.10;2.00;;;;;;;27.72;48.84;99437.75;5077385;28;20261;-79
2023/06/07 10:09:00;;;;;;;3.08;2.13;;;;;;;27.49;48.17;99434.88;5074884;28;20313;-79
2023/06/07 10:11:30;;;;;;;2.97;2.10;;;;;;;27.57;50.69;99439.88;5073745;28;20218;-78
2023/06/07 10:13:58;;;;;;;2.60;2.15;;;;;;;27.72;49.38;99443.00;5074544;28;20206;-79
2023/06/07 10:16:29;;;;;;;2.17;1.98;;;;;;;27.65;49.44;99438.81;5077594;28;20600;-78
2023/06/07 10:19:01;;;;;;;2.10;1.90;;;;;;;27.60;49.48;99436.81;5077142;28;20249;-79
2023/06/07 10:21:34;;;;;;;3.75;2.30;;;;;;;27.46;48.88;99438.75;5078597;28;20226;-78
2023/06/07 10:24:06;;;;;;;3.05;2.03;;;;;;;27.42;49.52;99428.84;5078944;28;20213;-78
2023/06/07 10:26:41;;;;;;;3.40;1.77;;;;;;;27.58;49.26;99432.78;5079417;28;20230;-78
2023/06/07 10:29:12;;;;;;;4.68;2.15;;;;;;;27.72;49.30;99427.25;5077893;28;20225;-78
2023/06/07 10:31:46;;;;;;;3.20;2.33;;;;;;;27.77;51.54;99430.00;5076696;28;20296;-78
2023/06/07 10:34:15;;;;;;;3.63;2.42;;;;;;;27.77;50.84;99434.47;5076801;28;20205;-78
2023/06/07 10:36:42;;;;;;;2.42;2.10;;;;;;;27.67;48.94;99431.53;5076370;28;20223;-78
2023/06/07 10:39:11;;;;;;;2.47;1.80;;;;;;;27.88;52.03;99430.38;5078637;28;20222;-78
2023/06/07 10:41:40;;;;;;;2.33;2.00;;;;;;;27.92;51.12;99426.28;5078690;28;20227;-78
2023/06/07 10:44:07;;;;;;;3.42;2.13;;;;;;;27.96;49.11;99428.28;5076604;28;20199;-78
2023/06/07 10:46:34;;;;;;;3.10;1.90;;;;;;;27.93;50.94;99422.66;5077833;28;20288;-78
2023/06/07 10:49:01;;;;;;;2.88;2.00;;;;;;;27.89;46.40;99426.72;5076655;28;20203;-78
2023/06/07 10:52:02;;;;;;;4.55;2.17;;;;;;;28.11;51.07;99420.06;5077879;28;20227;-78
2023/06/07 10:54:30;;;;;;;5.15;2.22;;;;;;;28.36;54.04;99406.88;5077184;28;20202;-78
2023/06/07 10:56:59;;;;;;;3.30;2.30;;;;;;;28.37;48.98;99415.56;5076257;28;20203;-78
2023/06/07 10:59:26;;;;;;;3.63;2.10;;;;;;;28.49;49.45;99410.41;5078995;28;20304;-78
2023/06/07 11:01:54;;;;;;;2.28;1.95;;;;;;;28.54;49.24;99402.66;5076522;28;20226;-78
2023/06/07 11:04:52;;;;;;;2.75;1.80;;;;;;;28.43;50.23;99409.44;5077072;28;20198;-78
2023/06/07 11:07:22;;;;;;;2.92;2.10;;;;;;;28.56;49.47;99400.59;5076703;28;20575;-78
2023/06/07 11:09:49;;;;;;;2.90;2.08;;;;;;;28.50;48.67;99396.22;5077631;28;20199;-78
2023/06/07 11:12:50;;;;;;;3.20;2.13;;;;;;;28.59;48.26;99400.94;5076987;28;20209;-78
2023/06/07 11:15:30;;;;;;;3.45;2.58;;;;;;;28.66;47.17;99396.41;5073240;28;20226;-78
2023/06/07 11:17:58;;;;;;;2.72;2.00;;;;;;;28.84;48.50;99397.41;5077479;28;20210;-78
2023/06/07 11:20:51;;;;;;;2.38;1.95;;;;;;;28.56;44.97;99396.13;5075476;28;20283;-78
2023/06/07 11:23:25;;;;;;;3.33;2.30;;;;;;;28.41;47.89;99393.88;5076874;28;20203;-78
2023/06/07 11:25:54;;;;;;;2.60;2.13;;;;;;;28.39;48.08;99385.38;5078396;28;20307;-78
2023/06/07 11:28:24;;;;;;;4.30;2.00;;;;;;;28.48;49.97;99393.00;5076239;28;20203;-78
2023/06/07 11:30:53;;;;;;;2.28;1.85;;;;;;;28.51;48.01;99395.19;5077092;28;20222;-78
2023/06/07 11:33:21;;;;;;;4.68;2.00;;;;;;;28.69;45.71;99389.13;5077711;28;20214;-78
2023/06/07 11:35:48;;;;;;;3.95;2.08;;;;;;;28.84;47.30;99392.16;5075717;28;20222;-78